createdAt,value
2019-02-21T00:02:15.358Z,7.73
2019-02-21T00:04:44.297Z,7.70
2019-02-21T00:07:12.857Z,7.74
2019-02-21T00:09:41.356Z,7.71
2019-02-21T00:12:09.834Z,7.73
2019-02-21T00:14:38.302Z,7.71
2019-02-21T00:17:06.847Z,7.69
2019-02-21T00:19:35.399Z,7.68
2019-02-21T00:22:03.950Z,7.68
2019-02-21T00:24:32.497Z,7.65
2019-02-21T00:27:00.995Z,7.66
2019-02-21T00:29:32.262Z,7.62
2019-02-21T00:32:00.734Z,7.60
2019-02-21T00:34:29.207Z,7.39
2019-02-21T00:36:57.803Z,7.59
2019-02-21T00:39:26.274Z,7.58
2019-02-21T00:41:54.756Z,7.58
2019-02-21T00:44:23.242Z,7.58
2019-02-21T00:46:51.898Z,7.56
2019-02-21T00:49:20.462Z,7.57
2019-02-21T00:51:49.014Z,7.56
2019-02-21T00:54:17.487Z,7.58
2019-02-21T00:56:45.964Z,7.56
2019-02-21T00:59:14.430Z,7.54
2019-02-21T01:01:43.589Z,7.59
2019-02-21T01:04:12.050Z,7.57
2019-02-21T01:06:40.526Z,7.56
2019-02-21T01:09:09.176Z,7.54
2019-02-21T01:11:37.788Z,7.55
2019-02-21T01:14:07.724Z,7.58
2019-02-21T01:16:36.220Z,7.54
2019-02-21T01:19:04.905Z,7.57
2019-02-21T01:21:33.453Z,7.54
2019-02-21T01:24:04.728Z,7.57
2019-02-21T01:26:32.274Z,7.61
2019-02-21T01:29:00.763Z,7.54
2019-02-21T01:31:29.230Z,7.50
2019-02-21T01:33:57.886Z,7.55
2019-02-21T01:36:26.341Z,7.54
2019-02-21T01:38:54.865Z,7.54
2019-02-21T01:41:23.326Z,7.58
2019-02-21T01:43:51.828Z,7.57
2019-02-21T01:46:20.307Z,7.56
2019-02-21T01:48:48.802Z,7.58
2019-02-21T01:51:17.250Z,7.57
2019-02-21T01:53:45.785Z,7.61
2019-02-21T01:56:14.226Z,7.59
2019-02-21T01:58:42.713Z,7.64
2019-02-21T02:01:11.167Z,7.62
2019-02-21T02:03:39.804Z,7.61
2019-02-21T02:06:08.276Z,7.62
2019-02-21T02:08:37.321Z,7.66
2019-02-21T02:11:05.885Z,7.65
2019-02-21T02:13:34.536Z,7.64
2019-02-21T02:16:03.076Z,7.68
2019-02-21T02:18:31.603Z,7.67
2019-02-21T02:21:00.160Z,7.65
2019-02-21T02:23:28.697Z,7.68
2019-02-21T02:25:57.161Z,7.65
2019-02-21T02:28:25.659Z,7.66
2019-02-21T02:30:55.792Z,7.66
2019-02-21T02:33:24.294Z,7.65
2019-02-21T02:35:52.748Z,7.65
2019-02-21T02:38:21.301Z,7.64
2019-02-21T02:40:49.839Z,7.67
2019-02-21T02:43:21.314Z,7.70
2019-02-21T02:45:49.909Z,7.65
2019-02-21T02:48:18.377Z,7.69
2019-02-21T02:50:46.913Z,7.68
2019-02-21T02:53:15.389Z,7.71
2019-02-21T02:55:43.869Z,7.71
2019-02-21T02:58:12.500Z,7.65
2019-02-21T03:00:40.989Z,7.69
2019-02-21T03:03:09.516Z,7.71
2019-02-21T03:05:37.999Z,7.71
2019-02-21T03:08:06.488Z,7.64
2019-02-21T03:10:36.509Z,7.70
2019-02-21T03:13:06.367Z,7.73
2019-02-21T03:15:35.309Z,7.73
2019-02-21T03:18:03.774Z,7.72
2019-02-21T03:20:32.277Z,7.74
2019-02-21T03:23:00.789Z,7.73
2019-02-21T03:25:29.295Z,7.75
2019-02-21T03:27:57.909Z,7.70
2019-02-21T03:30:26.389Z,7.73
2019-02-21T03:32:54.875Z,7.71
2019-02-21T03:35:23.533Z,7.65
2019-02-21T03:37:52.050Z,7.68
2019-02-21T03:40:20.700Z,7.64
2019-02-21T03:42:49.185Z,7.61
2019-02-21T03:45:17.845Z,7.14
2019-02-21T03:47:48.048Z,7.62
2019-02-21T03:50:16.721Z,7.63
2019-02-21T03:52:45.273Z,7.61
2019-02-21T03:55:13.911Z,7.62
2019-02-21T03:57:45.397Z,7.59
2019-02-21T04:00:14.132Z,7.59
2019-02-21T04:02:42.821Z,7.60
2019-02-21T04:05:11.509Z,7.61
2019-02-21T04:07:39.997Z,7.53
2019-02-21T04:10:09.648Z,7.58
2019-02-21T04:12:38.721Z,7.57
2019-02-21T04:15:10.130Z,7.60
2019-02-21T04:17:38.728Z,7.60
2019-02-21T04:20:08.465Z,7.56
2019-02-21T04:22:36.919Z,7.56
2019-02-21T04:25:07.232Z,7.52
2019-02-21T04:27:35.771Z,7.52
2019-02-21T04:30:04.843Z,7.49
2019-02-21T04:32:33.396Z,7.48
2019-02-21T04:35:01.983Z,7.48
2019-02-21T04:37:30.449Z,7.46
2019-02-21T04:39:58.916Z,7.42
2019-02-21T04:42:27.395Z,7.43
2019-02-21T04:44:55.931Z,7.43
2019-02-21T04:47:24.425Z,7.36
2019-02-21T04:49:52.894Z,7.39
2019-02-21T04:52:21.391Z,7.36
2019-02-21T04:54:49.859Z,7.42
2019-02-21T04:57:18.363Z,7.37
2019-02-21T04:59:46.921Z,7.31
2019-02-21T05:02:15.459Z,7.32
2019-02-21T05:04:43.939Z,7.29
2019-02-21T05:07:12.444Z,7.01
2019-02-21T05:09:40.919Z,7.28
2019-02-21T05:12:09.433Z,7.31
2019-02-21T05:14:37.924Z,7.29
2019-02-21T05:17:06.472Z,7.29
2019-02-21T05:19:34.946Z,7.31
2019-02-21T05:22:03.450Z,7.28
2019-02-21T05:24:31.936Z,7.22
2019-02-21T05:27:05.024Z,7.23
2019-02-21T05:29:33.504Z,7.17
2019-02-21T05:32:06.118Z,7.16
2019-02-21T05:34:36.276Z,7.15
2019-02-21T05:40:03.792Z,7.12
2019-02-21T05:42:36.994Z,7.11
2019-02-21T05:45:14.063Z,7.04
2019-02-21T05:47:46.097Z,7.04
2019-02-21T05:50:25.570Z,7.02
2019-02-21T05:52:55.718Z,7.04
2019-02-21T05:55:29.424Z,7.05
2019-02-21T05:57:59.501Z,7.07
2019-02-21T06:00:36.911Z,7.09
2019-02-21T06:03:13.207Z,7.10
2019-02-21T06:05:59.340Z,7.09
2019-02-21T06:08:29.466Z,7.12
2019-02-21T06:11:11.375Z,7.09
2019-02-21T06:13:57.520Z,7.03
2019-02-21T06:16:32.543Z,7.06
2019-02-21T06:19:04.957Z,7.02
2019-02-21T06:21:37.634Z,7.05
2019-02-21T06:24:22.679Z,7.09
2019-02-21T06:26:56.821Z,7.15
2019-02-21T06:29:26.948Z,7.15
2019-02-21T06:31:57.789Z,7.12
2019-02-21T06:34:26.267Z,7.12
2019-02-21T06:36:54.770Z,7.17
2019-02-21T06:39:25.122Z,7.13
2019-02-21T06:41:59.719Z,7.15
2019-02-21T06:44:23.701Z,7.17
2019-02-21T06:46:52.184Z,7.17
2019-02-21T06:49:31.835Z,7.17
2019-02-21T06:51:50.887Z,7.13
2019-02-21T06:54:19.369Z,7.14
2019-02-21T06:56:47.858Z,7.12
2019-02-21T06:59:16.341Z,7.09
2019-02-21T07:01:44.821Z,7.05
2019-02-21T07:04:13.354Z,7.04
2019-02-21T07:06:43.785Z,7.11
2019-02-21T07:09:12.265Z,7.16
2019-02-21T07:11:40.821Z,7.16
2019-02-21T07:14:10.930Z,7.10
2019-02-21T07:16:39.536Z,7.16
2019-02-21T07:19:08.001Z,7.15
2019-02-21T07:21:36.742Z,7.16
2019-02-21T07:24:05.355Z,7.17
2019-02-21T07:27:19.035Z,7.19
2019-02-21T07:29:47.534Z,7.23
2019-02-21T07:32:16.026Z,7.19
2019-02-21T07:34:46.026Z,7.23
2019-02-21T07:37:18.677Z,7.24
2019-02-21T07:39:44.839Z,7.28
2019-02-21T07:42:13.446Z,7.27
2019-02-21T07:44:42.005Z,7.27
2019-02-21T07:47:10.492Z,7.30
2019-02-21T07:49:41.003Z,7.33
2019-02-21T07:52:09.462Z,7.32
2019-02-21T07:54:38.012Z,7.36
2019-02-21T07:57:08.492Z,7.45
2019-02-21T07:59:36.758Z,7.61
2019-02-21T08:02:05.316Z,8.07
2019-02-21T08:04:33.798Z,8.65
2019-02-21T08:07:02.273Z,9.19
2019-02-21T08:09:30.776Z,9.24
2019-02-21T08:11:59.334Z,9.14
2019-02-21T08:14:27.811Z,8.98
2019-02-21T08:16:56.328Z,9.01
2019-02-21T08:19:24.916Z,8.83
2019-02-21T08:21:53.545Z,8.78
2019-02-21T08:24:22.122Z,8.71
2019-02-21T08:26:50.587Z,8.75
2019-02-21T08:29:20.766Z,8.60
2019-02-21T08:31:49.591Z,8.33
2019-02-21T08:34:19.721Z,8.46
2019-02-21T08:36:48.314Z,8.36
2019-02-21T08:39:16.787Z,8.34
2019-02-21T08:41:45.260Z,8.35
2019-02-21T08:44:13.807Z,8.36
2019-02-21T08:46:42.425Z,8.32
2019-02-21T08:49:10.919Z,8.25
2019-02-21T08:51:39.394Z,8.29
2019-02-21T08:54:07.871Z,8.19
2019-02-21T08:56:36.370Z,8.12
2019-02-21T08:59:04.845Z,8.16
2019-02-21T09:01:33.373Z,8.14
2019-02-21T09:04:10.093Z,8.18
2019-02-21T09:06:32.188Z,8.19
2019-02-21T09:09:00.701Z,8.14
2019-02-21T09:11:29.169Z,8.18
2019-02-21T09:13:57.721Z,8.25
2019-02-21T09:16:26.176Z,8.27
2019-02-21T09:18:54.714Z,8.31
2019-02-21T09:21:23.273Z,8.42
2019-02-21T09:23:51.736Z,8.48
2019-02-21T09:26:21.684Z,8.60
2019-02-21T09:28:50.371Z,8.57
2019-02-21T09:31:18.960Z,8.64
2019-02-21T09:33:47.422Z,8.57
2019-02-21T09:36:16.966Z,8.55
2019-02-21T09:38:45.383Z,8.53
2019-02-21T09:41:13.869Z,8.60
2019-02-21T09:43:42.416Z,8.68
2019-02-21T09:46:11.013Z,8.85
2019-02-21T09:48:39.585Z,8.93
2019-02-21T09:51:08.194Z,9.02
2019-02-21T09:53:36.661Z,9.03
2019-02-21T09:56:05.199Z,8.99
2019-02-21T09:58:33.775Z,9.01
2019-02-21T10:01:02.394Z,8.96
2019-02-21T10:03:30.899Z,9.07
2019-02-21T10:05:59.372Z,9.18
2019-02-21T10:08:27.847Z,9.22
2019-02-21T10:10:56.328Z,9.25
2019-02-21T10:13:24.819Z,9.21
2019-02-21T10:15:53.415Z,9.18
2019-02-21T10:18:21.909Z,9.17
2019-02-21T10:20:50.598Z,9.23
2019-02-21T10:23:19.085Z,9.34
2019-02-21T10:25:47.653Z,9.40
2019-02-21T10:28:16.263Z,9.43
2019-02-21T10:30:44.744Z,9.73
2019-02-21T10:33:13.223Z,9.98
2019-02-21T10:35:47.919Z,10.12
2019-02-21T10:38:16.421Z,10.33
2019-02-21T10:40:44.927Z,10.35
2019-02-21T10:43:15.269Z,10.34
2019-02-21T10:45:47.795Z,10.05
2019-02-21T10:48:14.027Z,10.13
2019-02-21T10:50:42.497Z,10.09
2019-02-21T10:53:12.101Z,10.18
2019-02-21T10:55:40.587Z,10.11
2019-02-21T10:58:09.217Z,10.14
2019-02-21T11:00:37.972Z,10.23
2019-02-21T11:03:06.604Z,10.22
2019-02-21T11:05:35.214Z,10.29
2019-02-21T11:08:03.979Z,10.19
2019-02-21T11:10:32.490Z,10.05
2019-02-21T11:13:01.009Z,9.93
2019-02-21T11:15:29.514Z,9.92
2019-02-21T11:17:58.247Z,9.98
2019-02-21T11:20:26.830Z,10.03
2019-02-21T11:22:55.341Z,10.01
2019-02-21T11:25:23.945Z,9.98
2019-02-21T11:27:52.437Z,9.91
2019-02-21T11:30:21.613Z,9.93
2019-02-21T11:32:50.183Z,10.12
2019-02-21T11:35:18.814Z,10.18
2019-02-21T11:37:47.718Z,10.11
2019-02-21T11:40:17.613Z,10.17
2019-02-21T11:42:46.367Z,10.15
2019-02-21T11:45:19.824Z,10.23
2019-02-21T11:47:48.323Z,10.11
2019-02-21T11:50:18.641Z,10.06
2019-02-21T11:52:47.212Z,10.07
2019-02-21T11:55:26.240Z,10.04
2019-02-21T11:57:55.139Z,9.99
2019-02-21T12:00:32.872Z,10.01
2019-02-21T12:03:01.376Z,10.05
2019-02-21T12:05:31.888Z,9.87
2019-02-21T12:08:11.548Z,9.93
2019-02-21T12:10:40.023Z,9.86
2019-02-21T12:13:08.518Z,9.83
2019-02-21T12:16:06.256Z,9.88
2019-02-21T12:18:48.472Z,9.85
2019-02-21T12:21:17.116Z,9.90
2019-02-21T12:24:10.791Z,9.85
2019-02-21T12:26:41.258Z,9.86
2019-02-21T12:29:46.886Z,9.86
2019-02-21T12:32:21.140Z,9.78
2019-02-21T12:34:49.960Z,9.77
2019-02-21T12:37:18.484Z,9.71
2019-02-21T12:39:46.962Z,9.72
2019-02-21T12:42:15.538Z,9.70
2019-02-21T12:44:44.060Z,9.75
2019-02-21T12:47:12.621Z,9.68
2019-02-21T12:49:41.137Z,9.75
2019-02-21T12:52:09.742Z,9.76
2019-02-21T12:54:38.281Z,9.61
2019-02-21T12:57:06.775Z,9.69
2019-02-21T12:59:35.232Z,9.57
2019-02-21T13:02:03.956Z,9.62
2019-02-21T13:04:34.624Z,9.54
2019-02-21T13:07:02.671Z,9.51
2019-02-21T13:09:31.665Z,9.52
2019-02-21T13:12:01.319Z,9.48
2019-02-21T13:14:29.821Z,9.49
2019-02-21T13:16:58.281Z,9.54
2019-02-21T13:19:26.755Z,9.57
2019-02-21T13:21:55.342Z,9.61
2019-02-21T13:24:23.881Z,9.59
2019-02-21T13:26:53.405Z,9.60
2019-02-21T13:29:21.866Z,9.58
2019-02-21T13:31:50.359Z,9.62
2019-02-21T13:34:18.853Z,9.64
2019-02-21T13:36:47.336Z,9.65
2019-02-21T13:39:15.802Z,9.67
2019-02-21T13:41:44.286Z,9.75
2019-02-21T13:44:12.797Z,9.73
2019-02-21T13:46:41.904Z,9.78
2019-02-21T13:49:10.572Z,9.80
2019-02-21T13:51:39.119Z,9.77
2019-02-21T13:54:07.614Z,9.82
2019-02-21T13:56:36.075Z,9.72
2019-02-21T13:59:06.272Z,9.80
2019-02-21T14:01:34.758Z,9.72
2019-02-21T14:04:03.261Z,9.65
2019-02-21T14:06:31.748Z,9.66
2019-02-21T14:09:00.243Z,9.60
2019-02-21T14:11:30.732Z,9.60
2019-02-21T14:13:59.007Z,9.58
2019-02-21T14:16:27.531Z,9.61
2019-02-21T14:18:56.110Z,9.58
2019-02-21T14:21:24.638Z,9.49
2019-02-21T14:23:53.148Z,9.44
2019-02-21T14:26:21.695Z,9.43
2019-02-21T14:28:50.189Z,9.40
2019-02-21T14:31:18.655Z,9.43
2019-02-21T14:33:47.155Z,9.17
2019-02-21T14:36:19.083Z,9.45
2019-02-21T14:38:46.148Z,9.37
2019-02-21T14:41:14.678Z,9.37
2019-02-21T14:43:43.261Z,9.37
2019-02-21T14:46:11.732Z,9.35
2019-02-21T14:48:40.229Z,9.30
2019-02-21T14:51:08.764Z,9.29
2019-02-21T14:53:37.233Z,9.27
2019-02-21T14:56:05.855Z,9.21
2019-02-21T14:58:34.327Z,9.22
2019-02-21T15:01:02.858Z,9.20
2019-02-21T15:03:31.356Z,9.20
2019-02-21T15:05:59.858Z,9.23
2019-02-21T15:08:28.351Z,9.16
2019-02-21T15:10:56.813Z,9.19
2019-02-21T15:13:25.685Z,9.21
2019-02-21T15:15:54.176Z,9.21
2019-02-21T15:18:22.768Z,9.17
2019-02-21T15:20:51.290Z,9.17
2019-02-21T15:23:19.853Z,9.19
2019-02-21T15:25:48.307Z,9.14
2019-02-21T15:28:16.792Z,9.10
2019-02-21T15:30:45.504Z,9.12
2019-02-21T15:33:14.076Z,9.11
2019-02-21T15:35:42.618Z,9.17
2019-02-21T15:38:19.834Z,9.10
2019-02-21T15:40:44.491Z,9.03
2019-02-21T15:43:13.064Z,8.98
2019-02-21T15:45:41.712Z,9.02
2019-02-21T15:48:10.339Z,8.98
2019-02-21T15:50:38.802Z,8.99
2019-02-21T15:53:08.944Z,8.93
2019-02-21T15:55:37.436Z,8.87
2019-02-21T15:58:05.907Z,8.87
2019-02-21T16:00:34.452Z,8.86
2019-02-21T16:03:09.887Z,8.89
2019-02-21T16:05:38.373Z,8.86
2019-02-21T16:11:29.179Z,8.86
2019-02-21T16:14:03.118Z,8.78
2019-02-21T16:16:28.909Z,8.78
2019-02-21T16:19:01.744Z,8.80
2019-02-21T16:21:30.575Z,8.55
2019-02-21T16:24:01.044Z,8.79
2019-02-21T16:26:29.224Z,8.77
2019-02-21T16:28:57.701Z,8.74
2019-02-21T16:31:26.562Z,8.74
2019-02-21T16:33:55.047Z,8.78
2019-02-21T16:36:24.158Z,8.70
2019-02-21T16:38:52.800Z,8.71
2019-02-21T16:41:21.450Z,8.71
2019-02-21T16:43:49.923Z,8.73
2019-02-21T16:46:18.538Z,8.77
2019-02-21T16:48:46.989Z,8.75
2019-02-21T16:51:15.937Z,8.66
2019-02-21T16:53:44.398Z,8.62
2019-02-21T16:56:13.508Z,8.62
2019-02-21T16:58:42.912Z,8.64
2019-02-21T17:01:11.665Z,8.62
2019-02-21T17:03:40.480Z,8.64
2019-02-21T17:06:09.024Z,8.65
2019-02-21T17:08:37.732Z,8.60
2019-02-21T17:11:06.422Z,8.59
2019-02-21T17:13:35.239Z,8.58
2019-02-21T17:16:04.252Z,8.65
2019-02-21T17:18:33.008Z,8.62
2019-02-21T17:21:01.847Z,8.61
2019-02-21T17:23:30.523Z,8.59
2019-02-21T17:25:59.222Z,8.62
2019-02-21T17:28:28.045Z,8.61
2019-02-21T17:30:56.770Z,8.67
2019-02-21T17:33:25.427Z,8.68
2019-02-21T17:35:55.070Z,8.68
2019-02-21T17:38:49.667Z,8.64
2019-02-21T17:41:18.451Z,8.63
2019-02-21T17:43:48.042Z,8.58
2019-02-21T17:46:20.936Z,8.60
2019-02-21T17:48:49.904Z,8.59
2019-02-21T17:51:18.800Z,8.58
2019-02-21T17:53:48.513Z,8.59
2019-02-21T17:56:17.169Z,8.59
2019-02-21T17:58:45.748Z,8.60
2019-02-21T18:01:14.278Z,8.54
2019-02-21T18:03:42.770Z,8.54
2019-02-21T18:06:11.820Z,8.52
2019-02-21T18:08:40.869Z,8.53
2019-02-21T18:11:09.643Z,7.81
2019-02-21T18:13:43.015Z,8.44
2019-02-21T18:16:13.122Z,8.40
2019-02-21T18:18:44.714Z,8.39
2019-02-21T18:21:16.157Z,8.42
2019-02-21T18:23:46.268Z,8.39
2019-02-21T18:26:16.789Z,8.39
2019-02-21T18:28:45.729Z,8.34
2019-02-21T18:31:14.591Z,8.36
2019-02-21T18:33:43.477Z,8.32
2019-02-21T18:36:12.053Z,8.34
2019-02-21T18:38:40.533Z,8.31
2019-02-21T18:41:09.620Z,8.30
2019-02-21T18:43:41.382Z,8.24
2019-02-21T18:46:10.124Z,8.30
2019-02-21T18:48:39.016Z,8.34
2019-02-21T18:51:08.043Z,8.35
2019-02-21T18:53:36.871Z,8.34
2019-02-21T18:56:06.377Z,8.29
2019-02-21T18:58:41.154Z,8.25
2019-02-21T19:01:09.445Z,8.33
2019-02-21T19:03:38.201Z,8.22
2019-02-21T19:06:07.259Z,8.20
2019-02-21T19:08:36.326Z,8.18
2019-02-21T19:11:05.346Z,8.21
2019-02-21T19:13:35.733Z,8.18
2019-02-21T19:16:04.706Z,8.14
2019-02-21T19:18:33.529Z,8.17
2019-02-21T19:21:03.635Z,8.13
2019-02-21T19:23:32.242Z,8.17
2019-02-21T19:26:00.748Z,8.19
2019-02-21T19:28:31.319Z,8.16
2019-02-21T19:31:05.826Z,8.10
2019-02-21T19:33:34.398Z,8.10
2019-02-21T19:36:03.007Z,8.11
2019-02-21T19:38:36.599Z,8.16
2019-02-21T19:41:05.343Z,8.14
2019-02-21T19:43:33.964Z,8.12
2019-02-21T19:46:02.573Z,8.10
2019-02-21T19:48:31.139Z,7.83
2019-02-21T19:50:59.601Z,8.12
2019-02-21T19:53:28.175Z,8.07
2019-02-21T19:55:56.800Z,8.08
2019-02-21T19:58:25.368Z,8.10
2019-02-21T20:00:53.930Z,8.07
2019-02-21T20:03:22.554Z,8.14
2019-02-21T20:05:51.050Z,8.13
2019-02-21T20:08:21.716Z,8.10
2019-02-21T20:10:50.390Z,8.11
2019-02-21T20:13:19.072Z,8.04
2019-02-21T20:15:47.606Z,8.05
2019-02-21T20:18:16.132Z,7.97
2019-02-21T20:20:44.606Z,7.98
2019-02-21T20:23:16.241Z,7.99
2019-02-21T20:25:44.774Z,7.98
2019-02-21T20:28:15.664Z,7.96
2019-02-21T20:30:46.993Z,7.94
2019-02-21T20:33:14.822Z,7.97
2019-02-21T20:35:43.467Z,7.98
2019-02-21T20:38:12.002Z,7.94
2019-02-21T20:40:40.570Z,7.94
2019-02-21T20:43:09.236Z,7.98
2019-02-21T20:45:39.344Z,7.95
2019-02-21T20:48:08.060Z,7.90
2019-02-21T20:50:36.636Z,7.91
2019-02-21T20:53:05.152Z,7.87
2019-02-21T20:55:43.064Z,7.87
2019-02-21T20:58:06.737Z,7.82
2019-02-21T21:00:35.317Z,7.88
2019-02-21T21:03:03.770Z,7.90
2019-02-21T21:05:32.260Z,7.88
2019-02-21T21:12:29.195Z,7.84
2019-02-21T21:14:59.225Z,7.81
2019-02-21T21:17:27.715Z,7.82
2019-02-21T21:19:56.731Z,7.82
2019-02-21T21:22:25.223Z,7.83
2019-02-21T21:24:53.807Z,7.79
2019-02-21T21:27:22.915Z,7.77
2019-02-21T21:29:51.921Z,7.77
2019-02-21T21:32:20.446Z,7.73
2019-02-21T21:34:48.911Z,7.78
2019-02-21T21:37:17.410Z,7.80
2019-02-21T21:39:49.187Z,7.76
2019-02-21T21:42:17.679Z,7.81
2019-02-21T21:44:46.233Z,7.82
2019-02-21T21:47:14.811Z,7.82
2019-02-21T21:49:43.273Z,7.89
2019-02-21T21:52:11.818Z,7.89
2019-02-21T21:54:40.371Z,7.87
2019-02-21T21:57:09.431Z,7.83
2019-02-21T21:59:37.891Z,7.89
2019-02-21T22:02:06.407Z,7.91
2019-02-21T22:04:34.872Z,7.83
2019-02-21T22:07:09.691Z,7.76
2019-02-21T22:09:37.398Z,7.84
2019-02-21T22:12:05.933Z,7.78
2019-02-21T22:14:34.412Z,7.84
2019-02-21T22:17:04.507Z,7.75
2019-02-21T22:19:33.005Z,7.74
2019-02-21T22:22:01.460Z,7.75
2019-02-21T22:24:29.956Z,7.81
2019-02-21T22:26:58.438Z,7.77
2019-02-21T22:29:26.920Z,7.81
2019-02-21T22:31:55.387Z,7.72
2019-02-21T22:34:28.326Z,7.76
2019-02-21T22:36:58.438Z,7.73
2019-02-21T22:39:26.929Z,7.75
2019-02-21T22:41:55.415Z,7.76
2019-02-21T22:44:24.006Z,7.75
2019-02-21T22:46:52.689Z,7.71
2019-02-21T22:49:21.260Z,7.71
2019-02-21T22:51:49.735Z,7.74
2019-02-21T22:54:18.218Z,7.71
2019-02-21T22:56:46.682Z,7.77
2019-02-21T22:59:15.164Z,7.78
2019-02-21T23:01:43.870Z,7.75
2019-02-21T23:04:15.704Z,7.73
2019-02-21T23:06:59.015Z,7.73
2019-02-21T23:09:28.324Z,7.73
2019-02-21T23:11:56.975Z,7.28
2019-02-21T23:14:25.523Z,7.73
2019-02-21T23:16:54.085Z,7.70
2019-02-21T23:19:24.217Z,7.75
2019-02-21T23:21:52.873Z,7.72
2019-02-21T23:24:21.328Z,7.66
2019-02-21T23:26:49.802Z,7.67
2019-02-21T23:29:18.688Z,7.70
2019-02-21T23:31:47.187Z,7.76
2019-02-21T23:34:19.854Z,7.78
2019-02-21T23:36:48.331Z,7.74
2019-02-21T23:39:16.811Z,7.75
2019-02-21T23:41:45.286Z,7.77
2019-02-21T23:44:13.821Z,7.26
2019-02-21T23:46:42.360Z,7.64
2019-02-21T23:49:10.841Z,7.64
2019-02-21T23:51:39.364Z,7.65
2019-02-21T23:54:07.902Z,7.68
2019-02-21T23:56:36.423Z,7.64
2019-02-21T23:59:04.893Z,7.63
